createdAt,value
2019-03-31T00:02:28.424Z,8.41
2019-03-31T00:05:32.163Z,8.36
2019-03-31T00:08:35.884Z,8.33
2019-03-31T00:11:39.515Z,8.28
2019-03-31T00:14:43.367Z,8.29
2019-03-31T00:17:46.992Z,8.23
2019-03-31T00:20:50.756Z,8.16
2019-03-31T00:23:54.484Z,8.15
2019-03-31T00:26:58.096Z,8.13
2019-03-31T00:30:01.764Z,8.13
2019-03-31T00:33:05.507Z,8.11
2019-03-31T00:36:09.186Z,8.10
2019-03-31T00:39:12.915Z,8.03
2019-03-31T00:42:16.605Z,8.01
2019-03-31T00:45:20.278Z,7.98
2019-03-31T00:48:24.434Z,7.96
2019-03-31T00:51:28.344Z,7.92
2019-03-31T00:54:32.072Z,7.84
2019-03-31T00:57:35.658Z,7.83
2019-03-31T01:00:46.825Z,7.80
2019-03-31T01:03:50.647Z,7.77
2019-03-31T01:06:54.587Z,7.80
2019-03-31T01:09:58.598Z,7.80
2019-03-31T01:13:02.376Z,7.86
2019-03-31T01:16:07.106Z,7.88
2019-03-31T01:19:11.185Z,7.94
2019-03-31T01:22:14.858Z,8.01
2019-03-31T01:25:18.897Z,8.08
2019-03-31T01:28:22.759Z,8.10
2019-03-31T01:31:28.319Z,8.08
2019-03-31T01:34:32.081Z,8.08
2019-03-31T01:37:35.796Z,8.07
2019-03-31T01:40:39.433Z,8.13
2019-03-31T01:43:43.171Z,8.16
2019-03-31T01:46:46.978Z,8.17
2019-03-31T01:49:50.638Z,8.18
2019-03-31T01:52:54.336Z,8.16
2019-03-31T01:55:57.940Z,8.12
2019-03-31T01:59:01.675Z,8.11
2019-03-31T02:02:05.518Z,8.06
2019-03-31T02:05:09.254Z,8.03
2019-03-31T02:08:12.951Z,8.04
2019-03-31T02:11:16.614Z,8.06
2019-03-31T02:14:20.287Z,8.02
2019-03-31T02:17:24.254Z,7.99
2019-03-31T02:20:27.903Z,7.97
2019-03-31T02:23:31.542Z,7.98
2019-03-31T02:26:35.194Z,7.97
2019-03-31T02:29:38.902Z,7.98
2019-03-31T02:32:42.722Z,7.96
2019-03-31T02:35:46.389Z,7.93
2019-03-31T02:38:50.041Z,7.93
2019-03-31T02:41:53.641Z,7.90
2019-03-31T02:44:57.470Z,7.89
2019-03-31T02:48:01.201Z,7.87
2019-03-31T02:51:04.808Z,7.88
2019-03-31T02:54:08.459Z,7.85
2019-03-31T02:57:12.381Z,7.84
2019-03-31T03:00:16.044Z,7.84
2019-03-31T03:03:19.967Z,7.83
2019-03-31T03:06:23.646Z,7.83
2019-03-31T03:09:27.303Z,7.80
2019-03-31T03:12:30.960Z,7.79
2019-03-31T03:15:40.322Z,7.77
2019-03-31T03:18:43.943Z,7.75
2019-03-31T03:21:47.554Z,7.72
2019-03-31T03:24:51.345Z,7.67
2019-03-31T03:27:54.994Z,7.65
2019-03-31T03:30:58.768Z,7.58
2019-03-31T03:34:02.624Z,7.54
2019-03-31T03:37:06.345Z,7.46
2019-03-31T03:40:09.998Z,7.43
2019-03-31T03:43:13.698Z,7.34
2019-03-31T03:46:17.362Z,7.29
2019-03-31T03:49:20.977Z,7.23
2019-03-31T03:52:24.582Z,7.16
2019-03-31T03:55:28.236Z,7.10
2019-03-31T03:58:31.910Z,7.03
2019-03-31T04:01:35.571Z,6.97
2019-03-31T04:04:39.336Z,6.90
2019-03-31T04:07:42.913Z,6.85
2019-03-31T04:10:49.683Z,6.79
2019-03-31T04:13:53.306Z,6.74
2019-03-31T04:16:56.861Z,6.67
2019-03-31T04:20:00.633Z,6.62
2019-03-31T04:23:04.239Z,6.56
2019-03-31T04:26:07.903Z,6.52
2019-03-31T04:29:11.557Z,6.48
2019-03-31T04:32:15.193Z,6.45
2019-03-31T04:35:19.021Z,6.39
2019-03-31T04:38:22.722Z,6.36
2019-03-31T04:41:26.400Z,6.32
2019-03-31T04:44:30.102Z,6.31
2019-03-31T04:47:33.704Z,6.31
2019-03-31T04:50:37.422Z,6.34
2019-03-31T04:53:41.098Z,6.41
2019-03-31T04:56:44.750Z,6.46
2019-03-31T04:59:48.577Z,6.45
2019-03-31T05:02:52.230Z,6.46
2019-03-31T05:05:55.909Z,6.46
2019-03-31T05:08:59.620Z,6.47
2019-03-31T05:12:03.302Z,6.50
2019-03-31T05:15:07.278Z,6.52
2019-03-31T05:18:10.992Z,6.63
2019-03-31T05:21:14.717Z,6.68
2019-03-31T05:24:18.395Z,6.78
2019-03-31T05:27:22.142Z,6.86
2019-03-31T05:30:25.847Z,6.98
2019-03-31T05:33:29.426Z,7.02
2019-03-31T05:36:33.089Z,7.01
2019-03-31T05:39:36.803Z,7.09
2019-03-31T05:42:40.554Z,7.16
2019-03-31T05:45:44.272Z,7.16
2019-03-31T05:48:48.008Z,7.15
2019-03-31T05:51:51.681Z,7.35
2019-03-31T05:54:55.406Z,7.67
2019-03-31T05:57:59.153Z,7.77
2019-03-31T06:01:02.944Z,7.88
2019-03-31T06:04:06.748Z,7.93
2019-03-31T06:07:10.578Z,7.96
2019-03-31T06:10:15.038Z,7.93
2019-03-31T06:13:18.711Z,7.75
2019-03-31T06:16:22.342Z,7.69
2019-03-31T06:19:25.961Z,7.68
2019-03-31T06:22:29.803Z,7.60
2019-03-31T06:25:33.610Z,7.58
2019-03-31T06:28:37.712Z,7.58
2019-03-31T06:31:41.636Z,7.59
2019-03-31T06:34:47.645Z,7.64
2019-03-31T06:37:51.248Z,7.67
2019-03-31T06:40:57.468Z,7.73
2019-03-31T06:44:01.359Z,7.63
2019-03-31T06:47:05.394Z,7.70
2019-03-31T06:50:09.341Z,8.01
2019-03-31T06:53:13.056Z,8.17
2019-03-31T06:56:16.942Z,8.45
2019-03-31T06:59:20.662Z,8.57
2019-03-31T07:02:24.520Z,8.91
2019-03-31T07:05:28.360Z,9.04
2019-03-31T07:08:32.198Z,8.86
2019-03-31T07:11:36.048Z,9.34
2019-03-31T07:14:39.910Z,10.01
2019-03-31T07:17:46.944Z,10.70
2019-03-31T07:20:51.322Z,10.76
2019-03-31T07:23:55.386Z,10.79
2019-03-31T07:27:00.077Z,11.34
2019-03-31T07:30:07.186Z,11.71
2019-03-31T07:33:11.453Z,11.62
2019-03-31T07:36:15.554Z,12.13
2019-03-31T07:39:19.115Z,12.53
2019-03-31T07:42:23.206Z,12.99
2019-03-31T07:45:27.364Z,13.32
2019-03-31T07:48:31.004Z,13.24
2019-03-31T07:51:37.420Z,13.02
2019-03-31T07:54:40.116Z,13.31
2019-03-31T07:57:43.817Z,13.45
2019-03-31T08:00:48.275Z,13.62
2019-03-31T08:03:52.414Z,13.58
2019-03-31T08:06:56.300Z,13.76
2019-03-31T08:10:00.451Z,14.14
2019-03-31T08:13:04.509Z,14.53
2019-03-31T08:16:08.194Z,14.98
2019-03-31T08:19:11.976Z,14.93
2019-03-31T08:22:15.880Z,15.34
2019-03-31T08:25:21.210Z,15.45
2019-03-31T08:28:25.918Z,15.66
2019-03-31T08:31:29.932Z,15.16
2019-03-31T08:34:33.853Z,15.40
2019-03-31T08:37:37.736Z,15.71
2019-03-31T08:40:41.432Z,15.85
2019-03-31T08:43:45.512Z,16.01
2019-03-31T08:46:49.391Z,16.07
2019-03-31T08:49:55.850Z,16.17
2019-03-31T08:53:03.938Z,16.05
2019-03-31T08:56:13.974Z,16.32
2019-03-31T08:59:21.788Z,16.90
2019-03-31T09:02:38.303Z,17.17
2019-03-31T09:05:42.219Z,16.29
2019-03-31T09:08:45.960Z,16.48
2019-03-31T09:11:49.961Z,16.76
2019-03-31T09:14:53.901Z,17.09
2019-03-31T09:17:57.586Z,16.92
2019-03-31T09:21:01.415Z,17.16
2019-03-31T09:24:05.504Z,16.61
2019-03-31T09:27:09.395Z,16.55
2019-03-31T09:30:13.329Z,15.56
2019-03-31T09:33:17.006Z,15.76
2019-03-31T09:36:20.574Z,16.61
2019-03-31T09:39:24.187Z,17.35
2019-03-31T09:42:27.834Z,16.42
2019-03-31T09:45:31.502Z,15.55
2019-03-31T09:48:35.154Z,14.07
2019-03-31T09:51:38.789Z,13.75
2019-03-31T09:54:42.507Z,14.27
2019-03-31T09:57:46.124Z,15.01
2019-03-31T10:00:52.314Z,15.91
2019-03-31T10:04:01.340Z,16.07
2019-03-31T10:07:08.132Z,16.50
2019-03-31T10:10:19.260Z,15.64
2019-03-31T10:13:25.334Z,15.76
2019-03-31T10:16:32.329Z,16.40
2019-03-31T10:19:38.100Z,16.83
2019-03-31T10:23:03.938Z,17.93
2019-03-31T10:26:09.727Z,17.93
2019-03-31T10:29:16.104Z,18.06
2019-03-31T10:32:21.831Z,18.32
2019-03-31T10:35:27.454Z,17.09
2019-03-31T10:38:31.455Z,16.09
2019-03-31T10:41:35.244Z,16.09
2019-03-31T10:44:38.981Z,15.32
2019-03-31T10:47:42.842Z,14.53
2019-03-31T10:50:46.462Z,14.33
2019-03-31T10:53:50.191Z,14.74
2019-03-31T10:56:53.916Z,15.15
2019-03-31T10:59:58.129Z,15.11
2019-03-31T11:03:02.260Z,14.95
2019-03-31T11:06:05.948Z,14.95
2019-03-31T11:09:09.686Z,15.32
2019-03-31T11:12:13.426Z,15.04
2019-03-31T11:15:22.033Z,14.92
2019-03-31T11:18:24.942Z,15.04
2019-03-31T11:21:33.346Z,14.94
2019-03-31T11:24:36.576Z,14.80
2019-03-31T11:27:43.636Z,14.85
2019-03-31T11:30:45.649Z,14.75
2019-03-31T11:33:49.382Z,14.46
2019-03-31T11:36:52.988Z,14.15
2019-03-31T11:39:57.720Z,13.79
2019-03-31T11:43:01.321Z,13.46
2019-03-31T11:46:04.923Z,12.86
2019-03-31T11:49:08.590Z,12.50
2019-03-31T11:52:12.199Z,12.32
2019-03-31T11:55:15.835Z,11.98
2019-03-31T11:58:19.562Z,12.00
2019-03-31T12:01:23.538Z,11.85
2019-03-31T12:04:27.420Z,11.85
2019-03-31T12:07:45.707Z,11.83
2019-03-31T12:10:36.790Z,11.94
2019-03-31T12:13:40.410Z,12.02
2019-03-31T12:16:44.185Z,11.95
2019-03-31T12:19:48.937Z,12.18
2019-03-31T12:22:53.142Z,12.50
2019-03-31T12:25:57.141Z,12.93
2019-03-31T12:29:00.796Z,13.09
2019-03-31T12:32:04.712Z,12.71
2019-03-31T12:35:08.980Z,12.18
2019-03-31T12:38:12.669Z,11.70
2019-03-31T12:41:16.758Z,11.15
2019-03-31T12:44:20.866Z,10.77
2019-03-31T12:47:24.804Z,10.63
2019-03-31T12:50:28.892Z,10.69
2019-03-31T12:53:32.503Z,10.66
2019-03-31T12:56:36.656Z,10.62
2019-03-31T12:59:43.007Z,10.44
2019-03-31T13:02:46.964Z,10.29
2019-03-31T13:05:51.103Z,10.23
2019-03-31T13:08:54.951Z,10.26
2019-03-31T13:11:59.080Z,10.29
2019-03-31T13:15:03.000Z,10.19
2019-03-31T13:18:07.061Z,9.93
2019-03-31T13:21:11.058Z,9.77
2019-03-31T13:24:15.134Z,9.58
2019-03-31T13:27:19.028Z,9.51
2019-03-31T13:30:22.949Z,9.24
2019-03-31T13:33:26.644Z,9.17
2019-03-31T13:36:30.340Z,9.23
2019-03-31T13:39:34.261Z,9.34
2019-03-31T13:42:38.245Z,9.44
2019-03-31T13:45:42.263Z,9.32
2019-03-31T13:48:46.126Z,9.30
2019-03-31T13:51:49.893Z,9.33
2019-03-31T13:54:56.694Z,9.35
2019-03-31T13:58:02.666Z,9.31
2019-03-31T14:01:05.951Z,9.28
2019-03-31T14:04:12.429Z,9.29
2019-03-31T14:07:16.463Z,9.23
2019-03-31T14:10:20.384Z,9.10
2019-03-31T14:13:24.200Z,9.00
2019-03-31T14:16:29.262Z,8.86
2019-03-31T14:19:33.245Z,8.65
2019-03-31T14:22:56.272Z,8.58
2019-03-31T14:26:00.041Z,8.46
2019-03-31T14:29:03.765Z,8.27
2019-03-31T14:32:07.510Z,8.24
2019-03-31T14:35:11.215Z,8.41
2019-03-31T14:38:14.906Z,8.27
2019-03-31T14:41:18.637Z,8.19
2019-03-31T14:44:22.431Z,7.91
2019-03-31T14:47:26.070Z,7.62
2019-03-31T14:50:35.268Z,7.42
2019-03-31T14:53:38.968Z,7.35
2019-03-31T14:56:42.704Z,7.32
2019-03-31T14:59:46.343Z,7.38
2019-03-31T15:02:50.206Z,7.40
2019-03-31T15:05:53.856Z,7.38
2019-03-31T15:08:57.676Z,7.43
2019-03-31T15:12:01.363Z,7.44
2019-03-31T15:15:06.571Z,7.54
2019-03-31T15:18:10.947Z,7.57
2019-03-31T15:21:14.617Z,7.71
2019-03-31T15:24:19.857Z,7.70
2019-03-31T15:27:23.913Z,7.65
2019-03-31T15:30:27.524Z,7.60
2019-03-31T15:33:31.291Z,7.61
2019-03-31T15:36:34.922Z,7.57
2019-03-31T15:39:38.614Z,7.57
2019-03-31T15:42:42.817Z,7.41
2019-03-31T15:45:46.392Z,7.24
2019-03-31T15:48:50.293Z,7.12
2019-03-31T15:51:54.012Z,6.98
2019-03-31T15:54:57.936Z,6.87
2019-03-31T15:58:05.193Z,6.81
2019-03-31T16:01:07.308Z,6.75
2019-03-31T16:04:10.980Z,6.66
2019-03-31T16:07:14.862Z,6.61
2019-03-31T16:10:18.662Z,6.55
2019-03-31T16:13:22.344Z,6.56
2019-03-31T16:16:25.944Z,6.53
2019-03-31T16:19:29.832Z,6.47
2019-03-31T16:22:33.452Z,6.41
2019-03-31T16:25:38.766Z,6.37
2019-03-31T16:28:42.776Z,6.35
2019-03-31T16:31:46.635Z,6.31
2019-03-31T16:34:50.256Z,6.28
2019-03-31T16:37:53.917Z,6.29
2019-03-31T16:40:57.820Z,6.30
2019-03-31T16:44:01.628Z,6.27
2019-03-31T16:47:05.269Z,6.23
2019-03-31T16:50:08.993Z,6.21
2019-03-31T16:53:12.758Z,6.19
2019-03-31T16:56:16.401Z,6.14
2019-03-31T16:59:20.094Z,6.12
2019-03-31T17:02:23.951Z,6.08
2019-03-31T17:05:27.782Z,6.05
2019-03-31T17:08:31.510Z,6.04
2019-03-31T17:11:35.398Z,5.99
2019-03-31T17:14:39.070Z,5.98
2019-03-31T17:17:43.038Z,5.97
2019-03-31T17:20:46.698Z,5.97
2019-03-31T17:23:51.932Z,5.94
2019-03-31T17:26:55.589Z,5.94
2019-03-31T17:29:59.313Z,5.91
2019-03-31T17:33:02.916Z,5.89
2019-03-31T17:36:06.658Z,5.83
2019-03-31T17:39:10.333Z,5.78
2019-03-31T17:42:14.386Z,5.77
2019-03-31T17:45:18.100Z,5.73
2019-03-31T17:48:21.752Z,5.72
2019-03-31T17:51:25.428Z,5.69
2019-03-31T17:54:29.039Z,5.67
2019-03-31T17:57:32.955Z,5.58
2019-03-31T18:00:36.643Z,5.54
2019-03-31T18:03:40.454Z,5.49
2019-03-31T18:06:44.271Z,5.40
2019-03-31T18:09:47.994Z,5.29
2019-03-31T18:12:51.776Z,5.24
2019-03-31T18:15:58.574Z,5.24
2019-03-31T18:19:09.735Z,5.18
2019-03-31T18:22:16.564Z,5.12
2019-03-31T18:25:19.376Z,5.08
2019-03-31T18:28:23.184Z,5.05
2019-03-31T18:31:27.634Z,4.95
2019-03-31T18:34:31.511Z,4.83
2019-03-31T18:37:35.440Z,4.60
2019-03-31T18:40:41.218Z,4.70
2019-03-31T18:43:51.653Z,4.64
2019-03-31T18:46:50.638Z,4.51
2019-03-31T18:49:54.396Z,4.45
2019-03-31T18:52:58.084Z,4.44
2019-03-31T18:56:09.397Z,4.41
2019-03-31T18:59:26.757Z,4.39
2019-03-31T19:02:32.015Z,4.34
2019-03-31T19:05:54.172Z,4.35
2019-03-31T19:09:02.588Z,4.32
2019-03-31T19:12:07.929Z,4.31
2019-03-31T19:15:16.116Z,4.21
2019-03-31T19:18:38.016Z,4.23
2019-03-31T19:21:48.478Z,4.22
2019-03-31T19:25:10.566Z,4.09
2019-03-31T19:28:28.592Z,4.12
2019-03-31T19:31:44.110Z,4.08
2019-03-31T19:35:09.396Z,4.07
2019-03-31T19:38:14.825Z,3.95
2019-03-31T19:41:35.405Z,3.66
2019-03-31T19:44:40.699Z,3.52
2019-03-31T19:47:46.046Z,3.46
2019-03-31T19:50:54.020Z,3.37
2019-03-31T19:54:02.600Z,3.35
2019-03-31T19:57:19.938Z,3.31
2019-03-31T20:00:40.380Z,3.17
2019-03-31T20:04:00.934Z,2.98
2019-03-31T20:07:12.172Z,2.83
2019-03-31T20:10:17.491Z,2.62
2019-03-31T20:13:25.457Z,2.47
2019-03-31T20:16:47.510Z,2.34
2019-03-31T20:19:55.609Z,2.22
2019-03-31T20:23:06.749Z,2.12
2019-03-31T20:26:21.060Z,2.15
2019-03-31T20:29:29.463Z,2.01
2019-03-31T20:32:34.751Z,1.83
2019-03-31T20:35:55.083Z,1.85
2019-03-31T20:39:03.198Z,1.97
2019-03-31T20:42:08.513Z,1.96
2019-03-31T20:45:12.384Z,1.75
2019-03-31T20:48:15.982Z,1.64
2019-03-31T20:51:19.676Z,1.57
2019-03-31T20:54:23.310Z,1.56
2019-03-31T20:57:27.088Z,1.63
2019-03-31T21:00:30.872Z,1.69
2019-03-31T21:03:34.522Z,1.64
2019-03-31T21:06:38.440Z,1.64
2019-03-31T21:09:45.025Z,1.66
2019-03-31T21:12:47.732Z,1.60
2019-03-31T21:15:51.437Z,1.40
2019-03-31T21:18:55.175Z,1.27
2019-03-31T21:21:58.947Z,1.31
2019-03-31T21:25:03.135Z,1.17
2019-03-31T21:28:06.992Z,1.10
2019-03-31T21:31:11.266Z,1.12
2019-03-31T21:34:15.172Z,1.16
2019-03-31T21:37:18.781Z,1.08
2019-03-31T21:40:22.430Z,0.96
2019-03-31T21:43:26.097Z,0.82
2019-03-31T21:46:29.690Z,0.86
2019-03-31T21:49:33.455Z,0.85
2019-03-31T21:52:37.058Z,0.86
2019-03-31T21:55:40.722Z,0.87
2019-03-31T21:58:44.618Z,0.91
2019-03-31T22:01:48.238Z,0.99
2019-03-31T22:04:51.988Z,0.96
2019-03-31T22:07:55.952Z,0.91
2019-03-31T22:10:59.864Z,0.90
2019-03-31T22:14:04.772Z,0.85
2019-03-31T22:17:08.464Z,0.82
2019-03-31T22:20:12.102Z,0.82
2019-03-31T22:23:15.744Z,0.86
2019-03-31T22:26:19.989Z,0.95
2019-03-31T22:29:23.941Z,1.01
2019-03-31T22:32:27.678Z,1.07
2019-03-31T22:35:31.560Z,1.09
2019-03-31T22:38:35.313Z,1.06
2019-03-31T22:41:39.060Z,0.93
2019-03-31T22:44:42.762Z,0.94
2019-03-31T22:47:46.644Z,0.95
2019-03-31T22:50:50.350Z,0.94
2019-03-31T22:53:54.066Z,0.84
2019-03-31T22:56:57.672Z,0.83
2019-03-31T23:00:01.433Z,0.83
2019-03-31T23:03:05.046Z,0.85
2019-03-31T23:06:08.666Z,0.81
2019-03-31T23:09:12.305Z,0.76
2019-03-31T23:12:16.038Z,0.79
2019-03-31T23:15:19.702Z,0.78
2019-03-31T23:18:23.294Z,0.70
2019-03-31T23:21:27.034Z,0.62
2019-03-31T23:24:30.660Z,0.62
2019-03-31T23:27:34.385Z,0.62
2019-03-31T23:30:38.118Z,0.51
2019-03-31T23:33:41.797Z,0.42
2019-03-31T23:36:45.451Z,0.37
2019-03-31T23:39:49.220Z,0.36
2019-03-31T23:42:52.844Z,0.51
2019-03-31T23:45:56.542Z,0.41
2019-03-31T23:49:00.272Z,0.32
2019-03-31T23:52:03.906Z,0.27
2019-03-31T23:55:07.519Z,0.22
2019-03-31T23:58:11.636Z,0.17
